sensor_id;sensor_type;location;lat;lon;timestamp;P1;durP1;ratioP1;P2;durP2;ratioP2
62202;SDS011;48199;49.138;7.414;2023-10-31T00:00:34;6.47;;;1.03;;
62202;SDS011;48199;49.138;7.414;2023-10-31T00:02:59;1.07;;;0.90;;
62202;SDS011;48199;49.138;7.414;2023-10-31T00:05:24;3.97;;;0.83;;
62202;SDS011;48199;49.138;7.414;2023-10-31T00:07:50;1.00;;;0.70;;
62202;SDS011;48199;49.138;7.414;2023-10-31T00:10:15;1.13;;;0.88;;
62202;SDS011;48199;49.138;7.414;2023-10-31T00:12:40;3.70;;;0.90;;
62202;SDS011;48199;49.138;7.414;2023-10-31T00:15:06;4.03;;;0.80;;
62202;SDS011;48199;49.138;7.414;2023-10-31T00:17:31;6.18;;;1.08;;
62202;SDS011;48199;49.138;7.414;2023-10-31T00:19:56;1.03;;;0.83;;
62202;SDS011;48199;49.138;7.414;2023-10-31T00:22:21;1.00;;;0.80;;
62202;SDS011;48199;49.138;7.414;2023-10-31T00:24:47;1.42;;;0.80;;
62202;SDS011;48199;49.138;7.414;2023-10-31T00:27:12;9.23;;;0.95;;
62202;SDS011;48199;49.138;7.414;2023-10-31T00:29:39;0.82;;;0.63;;
62202;SDS011;48199;49.138;7.414;2023-10-31T00:32:05;1.17;;;0.65;;
62202;SDS011;48199;49.138;7.414;2023-10-31T00:34:30;2.30;;;1.10;;
62202;SDS011;48199;49.138;7.414;2023-10-31T00:36:55;3.10;;;1.30;;
62202;SDS011;48199;49.138;7.414;2023-10-31T00:39:20;2.90;;;1.20;;
62202;SDS011;48199;49.138;7.414;2023-10-31T00:41:46;1.52;;;1.20;;
62202;SDS011;48199;49.138;7.414;2023-10-31T00:44:12;1.10;;;1.00;;
62202;SDS011;48199;49.138;7.414;2023-10-31T00:46:37;2.30;;;1.50;;
62202;SDS011;48199;49.138;7.414;2023-10-31T00:49:03;1.63;;;1.25;;
62202;SDS011;48199;49.138;7.414;2023-10-31T00:51:28;3.25;;;1.35;;
62202;SDS011;48199;49.138;7.414;2023-10-31T00:53:53;2.30;;;1.23;;
62202;SDS011;48199;49.138;7.414;2023-10-31T00:56:19;5.63;;;1.40;;
62202;SDS011;48199;49.138;7.414;2023-10-31T00:58:44;2.40;;;1.05;;
62202;SDS011;48199;49.138;7.414;2023-10-31T01:01:09;3.23;;;1.17;;
62202;SDS011;48199;49.138;7.414;2023-10-31T01:03:34;2.20;;;0.80;;
62202;SDS011;48199;49.138;7.414;2023-10-31T01:06:00;3.00;;;0.80;;
62202;SDS011;48199;49.138;7.414;2023-10-31T01:08:25;3.13;;;0.90;;
62202;SDS011;48199;49.138;7.414;2023-10-31T01:10:50;4.13;;;0.90;;
62202;SDS011;48199;49.138;7.414;2023-10-31T01:13:15;0.60;;;0.50;;
62202;SDS011;48199;49.138;7.414;2023-10-31T01:15:41;1.23;;;0.50;;
62202;SDS011;48199;49.138;7.414;2023-10-31T01:18:06;1.40;;;0.73;;
62202;SDS011;48199;49.138;7.414;2023-10-31T01:20:31;1.15;;;0.57;;
62202;SDS011;48199;49.138;7.414;2023-10-31T01:22:56;3.27;;;1.10;;
62202;SDS011;48199;49.138;7.414;2023-10-31T01:25:22;3.78;;;0.70;;
62202;SDS011;48199;49.138;7.414;2023-10-31T01:27:47;1.73;;;0.50;;
62202;SDS011;48199;49.138;7.414;2023-10-31T01:30:12;2.30;;;0.68;;
62202;SDS011;48199;49.138;7.414;2023-10-31T01:32:38;1.85;;;0.50;;
62202;SDS011;48199;49.138;7.414;2023-10-31T01:35:04;1.00;;;0.52;;
62202;SDS011;48199;49.138;7.414;2023-10-31T01:37:29;0.93;;;0.60;;
62202;SDS011;48199;49.138;7.414;2023-10-31T01:39:54;2.47;;;0.70;;
62202;SDS011;48199;49.138;7.414;2023-10-31T01:42:19;4.87;;;0.63;;
62202;SDS011;48199;49.138;7.414;2023-10-31T01:44:45;5.30;;;0.80;;
62202;SDS011;48199;49.138;7.414;2023-10-31T01:47:10;3.63;;;0.90;;
62202;SDS011;48199;49.138;7.414;2023-10-31T01:49:36;1.15;;;0.57;;
62202;SDS011;48199;49.138;7.414;2023-10-31T01:52:02;4.10;;;0.77;;
62202;SDS011;48199;49.138;7.414;2023-10-31T01:54:28;0.93;;;0.50;;
62202;SDS011;48199;49.138;7.414;2023-10-31T01:56:54;3.50;;;0.70;;
62202;SDS011;48199;49.138;7.414;2023-10-31T01:59:22;1.00;;;0.63;;
62202;SDS011;48199;49.138;7.414;2023-10-31T02:01:48;2.50;;;0.68;;
62202;SDS011;48199;49.138;7.414;2023-10-31T02:04:14;2.13;;;0.73;;
62202;SDS011;48199;49.138;7.414;2023-10-31T02:06:39;1.10;;;0.60;;
62202;SDS011;48199;49.138;7.414;2023-10-31T02:09:04;2.28;;;0.60;;
62202;SDS011;48199;49.138;7.414;2023-10-31T02:11:30;4.57;;;0.70;;
62202;SDS011;48199;49.138;7.414;2023-10-31T02:13:55;0.87;;;0.60;;
62202;SDS011;48199;49.138;7.414;2023-10-31T02:16:20;4.27;;;0.87;;
62202;SDS011;48199;49.138;7.414;2023-10-31T02:18:45;4.43;;;0.60;;
62202;SDS011;48199;49.138;7.414;2023-10-31T02:21:10;2.00;;;0.60;;
62202;SDS011;48199;49.138;7.414;2023-10-31T02:23:36;3.67;;;0.70;;
62202;SDS011;48199;49.138;7.414;2023-10-31T02:26:01;2.53;;;0.57;;
62202;SDS011;48199;49.138;7.414;2023-10-31T02:28:27;1.75;;;0.70;;
62202;SDS011;48199;49.138;7.414;2023-10-31T02:30:53;1.38;;;0.82;;
62202;SDS011;48199;49.138;7.414;2023-10-31T02:33:18;5.95;;;0.90;;
62202;SDS011;48199;49.138;7.414;2023-10-31T02:35:43;1.70;;;0.70;;
62202;SDS011;48199;49.138;7.414;2023-10-31T02:38:09;0.93;;;0.60;;
62202;SDS011;48199;49.138;7.414;2023-10-31T02:40:34;5.43;;;1.03;;
62202;SDS011;48199;49.138;7.414;2023-10-31T02:42:59;1.67;;;0.70;;
62202;SDS011;48199;49.138;7.414;2023-10-31T02:45:24;1.83;;;0.87;;
62202;SDS011;48199;49.138;7.414;2023-10-31T02:47:50;4.88;;;0.90;;
62202;SDS011;48199;49.138;7.414;2023-10-31T02:50:15;2.83;;;0.77;;
62202;SDS011;48199;49.138;7.414;2023-10-31T02:52:40;1.37;;;0.80;;
62202;SDS011;48199;49.138;7.414;2023-10-31T02:55:06;1.37;;;0.73;;
62202;SDS011;48199;49.138;7.414;2023-10-31T02:57:31;0.95;;;0.68;;
62202;SDS011;48199;49.138;7.414;2023-10-31T02:59:56;3.17;;;0.80;;
62202;SDS011;48199;49.138;7.414;2023-10-31T03:02:21;1.65;;;0.70;;
62202;SDS011;48199;49.138;7.414;2023-10-31T03:04:47;4.50;;;0.80;;
62202;SDS011;48199;49.138;7.414;2023-10-31T03:07:12;4.05;;;0.90;;
62202;SDS011;48199;49.138;7.414;2023-10-31T03:09:38;1.50;;;0.63;;
62202;SDS011;48199;49.138;7.414;2023-10-31T03:12:03;3.92;;;0.70;;
62202;SDS011;48199;49.138;7.414;2023-10-31T03:14:28;2.10;;;0.80;;
62202;SDS011;48199;49.138;7.414;2023-10-31T03:16:53;6.30;;;0.80;;
62202;SDS011;48199;49.138;7.414;2023-10-31T03:19:19;4.57;;;1.13;;
62202;SDS011;48199;49.138;7.414;2023-10-31T03:21:44;1.60;;;0.70;;
62202;SDS011;48199;49.138;7.414;2023-10-31T03:24:09;1.00;;;0.73;;
62202;SDS011;48199;49.138;7.414;2023-10-31T03:26:34;1.60;;;0.60;;
62202;SDS011;48199;49.138;7.414;2023-10-31T03:28:59;3.45;;;0.63;;
62202;SDS011;48199;49.138;7.414;2023-10-31T03:31:25;1.58;;;0.70;;
62202;SDS011;48199;49.138;7.414;2023-10-31T03:33:50;6.63;;;1.00;;
62202;SDS011;48199;49.138;7.414;2023-10-31T03:36:16;2.22;;;0.68;;
62202;SDS011;48199;49.138;7.414;2023-10-31T03:38:41;2.78;;;0.88;;
62202;SDS011;48199;49.138;7.414;2023-10-31T03:41:07;1.77;;;0.93;;
62202;SDS011;48199;49.138;7.414;2023-10-31T03:43:32;4.32;;;1.10;;
62202;SDS011;48199;49.138;7.414;2023-10-31T03:45:57;4.55;;;0.77;;
62202;SDS011;48199;49.138;7.414;2023-10-31T03:48:23;1.38;;;0.57;;
62202;SDS011;48199;49.138;7.414;2023-10-31T03:50:48;3.15;;;0.88;;
62202;SDS011;48199;49.138;7.414;2023-10-31T03:53:14;4.47;;;0.70;;
62202;SDS011;48199;49.138;7.414;2023-10-31T03:55:39;2.47;;;0.85;;
62202;SDS011;48199;49.138;7.414;2023-10-31T03:58:05;1.17;;;0.77;;
62202;SDS011;48199;49.138;7.414;2023-10-31T04:00:30;4.72;;;1.02;;
62202;SDS011;48199;49.138;7.414;2023-10-31T04:02:56;7.20;;;0.75;;
62202;SDS011;48199;49.138;7.414;2023-10-31T04:05:21;1.00;;;0.60;;
62202;SDS011;48199;49.138;7.414;2023-10-31T04:07:47;1.92;;;0.85;;
62202;SDS011;48199;49.138;7.414;2023-10-31T04:10:13;0.60;;;0.55;;
62202;SDS011;48199;49.138;7.414;2023-10-31T04:12:38;3.45;;;0.68;;
62202;SDS011;48199;49.138;7.414;2023-10-31T04:15:04;2.67;;;0.98;;
62202;SDS011;48199;49.138;7.414;2023-10-31T04:17:29;3.85;;;1.05;;
62202;SDS011;48199;49.138;7.414;2023-10-31T04:19:54;5.13;;;1.10;;
62202;SDS011;48199;49.138;7.414;2023-10-31T04:22:20;5.53;;;1.10;;
62202;SDS011;48199;49.138;7.414;2023-10-31T04:24:45;2.77;;;1.20;;
62202;SDS011;48199;49.138;7.414;2023-10-31T04:27:10;7.73;;;1.27;;
62202;SDS011;48199;49.138;7.414;2023-10-31T04:29:35;8.93;;;1.40;;
62202;SDS011;48199;49.138;7.414;2023-10-31T04:32:01;1.40;;;0.90;;
62202;SDS011;48199;49.138;7.414;2023-10-31T04:34:26;2.57;;;1.00;;
62202;SDS011;48199;49.138;7.414;2023-10-31T04:36:51;3.60;;;1.13;;
62202;SDS011;48199;49.138;7.414;2023-10-31T04:39:16;1.95;;;0.85;;
62202;SDS011;48199;49.138;7.414;2023-10-31T04:41:42;2.33;;;0.90;;
62202;SDS011;48199;49.138;7.414;2023-10-31T04:44:07;1.60;;;1.00;;
62202;SDS011;48199;49.138;7.414;2023-10-31T04:46:32;4.23;;;0.90;;
62202;SDS011;48199;49.138;7.414;2023-10-31T04:48:58;1.95;;;0.85;;
62202;SDS011;48199;49.138;7.414;2023-10-31T04:51:23;1.53;;;0.90;;
62202;SDS011;48199;49.138;7.414;2023-10-31T04:53:49;6.10;;;1.30;;
62202;SDS011;48199;49.138;7.414;2023-10-31T04:56:14;3.23;;;1.00;;
62202;SDS011;48199;49.138;7.414;2023-10-31T04:58:43;5.07;;;0.93;;
62202;SDS011;48199;49.138;7.414;2023-10-31T05:01:12;3.60;;;1.10;;
62202;SDS011;48199;49.138;7.414;2023-10-31T05:03:38;4.15;;;1.13;;
62202;SDS011;48199;49.138;7.414;2023-10-31T05:06:03;3.08;;;1.17;;
62202;SDS011;48199;49.138;7.414;2023-10-31T05:08:29;1.52;;;0.93;;
62202;SDS011;48199;49.138;7.414;2023-10-31T05:10:54;2.70;;;1.05;;
62202;SDS011;48199;49.138;7.414;2023-10-31T05:13:19;6.18;;;1.13;;
62202;SDS011;48199;49.138;7.414;2023-10-31T05:15:45;3.33;;;0.70;;
62202;SDS011;48199;49.138;7.414;2023-10-31T05:18:10;3.08;;;1.10;;
62202;SDS011;48199;49.138;7.414;2023-10-31T05:20:35;1.40;;;0.77;;
62202;SDS011;48199;49.138;7.414;2023-10-31T05:23:00;2.40;;;0.80;;
62202;SDS011;48199;49.138;7.414;2023-10-31T05:25:26;7.50;;;1.25;;
62202;SDS011;48199;49.138;7.414;2023-10-31T05:27:51;1.70;;;0.90;;
62202;SDS011;48199;49.138;7.414;2023-10-31T05:30:17;5.93;;;1.40;;
62202;SDS011;48199;49.138;7.414;2023-10-31T05:32:42;5.33;;;1.20;;
62202;SDS011;48199;49.138;7.414;2023-10-31T05:35:08;4.40;;;1.17;;
62202;SDS011;48199;49.138;7.414;2023-10-31T05:37:33;7.82;;;1.50;;
62202;SDS011;48199;49.138;7.414;2023-10-31T05:39:59;1.87;;;1.07;;
62202;SDS011;48199;49.138;7.414;2023-10-31T05:42:25;5.30;;;1.20;;
62202;SDS011;48199;49.138;7.414;2023-10-31T05:44:52;3.83;;;1.00;;
62202;SDS011;48199;49.138;7.414;2023-10-31T05:47:17;5.47;;;1.00;;
62202;SDS011;48199;49.138;7.414;2023-10-31T05:49:43;13.10;;;1.47;;
62202;SDS011;48199;49.138;7.414;2023-10-31T05:52:08;4.50;;;1.15;;
62202;SDS011;48199;49.138;7.414;2023-10-31T05:54:33;2.30;;;1.40;;
62202;SDS011;48199;49.138;7.414;2023-10-31T05:56:58;1.30;;;0.90;;
62202;SDS011;48199;49.138;7.414;2023-10-31T05:59:24;6.50;;;1.57;;
62202;SDS011;48199;49.138;7.414;2023-10-31T06:01:49;1.90;;;1.02;;
62202;SDS011;48199;49.138;7.414;2023-10-31T06:04:15;5.93;;;1.35;;
62202;SDS011;48199;49.138;7.414;2023-10-31T06:06:40;7.95;;;1.73;;
62202;SDS011;48199;49.138;7.414;2023-10-31T06:09:05;8.75;;;1.50;;
62202;SDS011;48199;49.138;7.414;2023-10-31T06:11:31;8.02;;;1.65;;
62202;SDS011;48199;49.138;7.414;2023-10-31T06:13:56;4.90;;;1.80;;
62202;SDS011;48199;49.138;7.414;2023-10-31T06:16:21;5.90;;;1.60;;
62202;SDS011;48199;49.138;7.414;2023-10-31T06:18:47;5.95;;;1.70;;
62202;SDS011;48199;49.138;7.414;2023-10-31T06:21:12;3.57;;;1.40;;
62202;SDS011;48199;49.138;7.414;2023-10-31T06:23:37;3.27;;;1.40;;
62202;SDS011;48199;49.138;7.414;2023-10-31T06:26:03;10.05;;;1.90;;
62202;SDS011;48199;49.138;7.414;2023-10-31T06:28:28;5.85;;;1.40;;
62202;SDS011;48199;49.138;7.414;2023-10-31T06:30:53;8.10;;;1.50;;
62202;SDS011;48199;49.138;7.414;2023-10-31T06:33:18;8.53;;;1.37;;
62202;SDS011;48199;49.138;7.414;2023-10-31T06:35:44;5.20;;;1.27;;
62202;SDS011;48199;49.138;7.414;2023-10-31T06:38:09;5.97;;;1.23;;
62202;SDS011;48199;49.138;7.414;2023-10-31T06:40:34;3.90;;;1.17;;
62202;SDS011;48199;49.138;7.414;2023-10-31T06:43:00;4.83;;;1.43;;
62202;SDS011;48199;49.138;7.414;2023-10-31T06:45:26;1.98;;;1.17;;
62202;SDS011;48199;49.138;7.414;2023-10-31T06:47:51;6.50;;;1.58;;
62202;SDS011;48199;49.138;7.414;2023-10-31T06:50:16;6.87;;;1.83;;
62202;SDS011;48199;49.138;7.414;2023-10-31T06:52:41;3.42;;;1.50;;
62202;SDS011;48199;49.138;7.414;2023-10-31T06:55:07;5.97;;;2.00;;
62202;SDS011;48199;49.138;7.414;2023-10-31T06:57:32;8.45;;;1.60;;
62202;SDS011;48199;49.138;7.414;2023-10-31T06:59:57;7.45;;;1.92;;
62202;SDS011;48199;49.138;7.414;2023-10-31T07:02:22;5.87;;;1.67;;
62202;SDS011;48199;49.138;7.414;2023-10-31T07:04:48;3.93;;;1.37;;
62202;SDS011;48199;49.138;7.414;2023-10-31T07:07:14;7.50;;;1.67;;
62202;SDS011;48199;49.138;7.414;2023-10-31T07:09:39;7.23;;;1.60;;
62202;SDS011;48199;49.138;7.414;2023-10-31T07:12:04;5.53;;;1.70;;
62202;SDS011;48199;49.138;7.414;2023-10-31T07:14:30;8.63;;;1.13;;
62202;SDS011;48199;49.138;7.414;2023-10-31T07:16:56;10.60;;;1.50;;
62202;SDS011;48199;49.138;7.414;2023-10-31T07:19:21;2.75;;;1.10;;
62202;SDS011;48199;49.138;7.414;2023-10-31T07:21:46;5.43;;;1.10;;
62202;SDS011;48199;49.138;7.414;2023-10-31T07:24:11;4.80;;;1.17;;
62202;SDS011;48199;49.138;7.414;2023-10-31T07:26:37;7.03;;;1.45;;
62202;SDS011;48199;49.138;7.414;2023-10-31T07:29:02;6.10;;;1.27;;
62202;SDS011;48199;49.138;7.414;2023-10-31T07:31:27;3.88;;;1.38;;
62202;SDS011;48199;49.138;7.414;2023-10-31T07:33:52;8.25;;;1.38;;
62202;SDS011;48199;49.138;7.414;2023-10-31T07:36:18;9.13;;;1.23;;
62202;SDS011;48199;49.138;7.414;2023-10-31T07:38:43;5.07;;;1.23;;
62202;SDS011;48199;49.138;7.414;2023-10-31T07:41:08;8.87;;;1.17;;
62202;SDS011;48199;49.138;7.414;2023-10-31T07:43:33;6.23;;;1.43;;
62202;SDS011;48199;49.138;7.414;2023-10-31T07:45:58;3.40;;;1.03;;
62202;SDS011;48199;49.138;7.414;2023-10-31T07:48:24;2.63;;;0.73;;
62202;SDS011;48199;49.138;7.414;2023-10-31T07:50:49;10.20;;;1.93;;
62202;SDS011;48199;49.138;7.414;2023-10-31T07:53:14;5.10;;;1.33;;
62202;SDS011;48199;49.138;7.414;2023-10-31T07:55:39;8.00;;;1.30;;
62202;SDS011;48199;49.138;7.414;2023-10-31T07:58:05;7.33;;;1.10;;
62202;SDS011;48199;49.138;7.414;2023-10-31T08:00:30;3.97;;;1.10;;
62202;SDS011;48199;49.138;7.414;2023-10-31T08:02:56;6.57;;;1.48;;
62202;SDS011;48199;49.138;7.414;2023-10-31T08:05:21;11.75;;;1.48;;
62202;SDS011;48199;49.138;7.414;2023-10-31T08:07:46;7.80;;;1.58;;
62202;SDS011;48199;49.138;7.414;2023-10-31T08:10:12;7.20;;;1.60;;
62202;SDS011;48199;49.138;7.414;2023-10-31T08:12:37;4.38;;;1.17;;
62202;SDS011;48199;49.138;7.414;2023-10-31T08:15:02;9.32;;;1.85;;
62202;SDS011;48199;49.138;7.414;2023-10-31T08:17:28;13.90;;;1.88;;
62202;SDS011;48199;49.138;7.414;2023-10-31T08:19:54;9.02;;;1.85;;
62202;SDS011;48199;49.138;7.414;2023-10-31T08:22:19;7.20;;;1.80;;
62202;SDS011;48199;49.138;7.414;2023-10-31T08:24:44;6.00;;;1.40;;
62202;SDS011;48199;49.138;7.414;2023-10-31T08:27:11;8.13;;;1.48;;
62202;SDS011;48199;49.138;7.414;2023-10-31T08:29:37;3.95;;;1.30;;
62202;SDS011;48199;49.138;7.414;2023-10-31T08:32:02;7.68;;;1.55;;
62202;SDS011;48199;49.138;7.414;2023-10-31T08:34:28;7.85;;;1.77;;
62202;SDS011;48199;49.138;7.414;2023-10-31T08:36:53;5.97;;;1.73;;
62202;SDS011;48199;49.138;7.414;2023-10-31T08:39:18;6.80;;;1.33;;
62202;SDS011;48199;49.138;7.414;2023-10-31T08:41:51;10.43;;;1.80;;
62202;SDS011;48199;49.138;7.414;2023-10-31T08:46:41;5.20;;;1.20;;
62202;SDS011;48199;49.138;7.414;2023-10-31T08:49:06;6.60;;;1.63;;
62202;SDS011;48199;49.138;7.414;2023-10-31T08:51:31;5.75;;;1.42;;
62202;SDS011;48199;49.138;7.414;2023-10-31T08:53:57;9.93;;;1.37;;
62202;SDS011;48199;49.138;7.414;2023-10-31T08:56:22;5.72;;;1.48;;
62202;SDS011;48199;49.138;7.414;2023-10-31T08:58:47;8.87;;;1.67;;
62202;SDS011;48199;49.138;7.414;2023-10-31T09:01:12;7.50;;;1.77;;
62202;SDS011;48199;49.138;7.414;2023-10-31T09:03:38;5.75;;;1.60;;
62202;SDS011;48199;49.138;7.414;2023-10-31T09:06:03;6.77;;;1.53;;
62202;SDS011;48199;49.138;7.414;2023-10-31T09:08:28;11.93;;;2.15;;
62202;SDS011;48199;49.138;7.414;2023-10-31T09:10:53;7.53;;;1.70;;
62202;SDS011;48199;49.138;7.414;2023-10-31T09:13:19;6.77;;;1.80;;
62202;SDS011;48199;49.138;7.414;2023-10-31T09:15:44;5.47;;;1.45;;
62202;SDS011;48199;49.138;7.414;2023-10-31T09:18:10;3.80;;;1.98;;
62202;SDS011;48199;49.138;7.414;2023-10-31T09:20:36;6.57;;;2.10;;
62202;SDS011;48199;49.138;7.414;2023-10-31T09:23:01;3.65;;;1.30;;
62202;SDS011;48199;49.138;7.414;2023-10-31T09:25:26;4.80;;;1.40;;
62202;SDS011;48199;49.138;7.414;2023-10-31T09:27:52;5.23;;;1.13;;
62202;SDS011;48199;49.138;7.414;2023-10-31T09:30:17;4.47;;;1.48;;
62202;SDS011;48199;49.138;7.414;2023-10-31T09:32:42;5.88;;;1.27;;
62202;SDS011;48199;49.138;7.414;2023-10-31T09:35:07;3.40;;;1.20;;
62202;SDS011;48199;49.138;7.414;2023-10-31T09:37:33;3.53;;;1.30;;
62202;SDS011;48199;49.138;7.414;2023-10-31T09:39:58;2.30;;;1.00;;
62202;SDS011;48199;49.138;7.414;2023-10-31T09:42:23;10.23;;;1.77;;
62202;SDS011;48199;49.138;7.414;2023-10-31T09:44:48;3.67;;;1.20;;
62202;SDS011;48199;49.138;7.414;2023-10-31T09:47:14;7.33;;;1.47;;
62202;SDS011;48199;49.138;7.414;2023-10-31T09:49:40;9.43;;;1.40;;
62202;SDS011;48199;49.138;7.414;2023-10-31T09:52:05;3.70;;;1.20;;
62202;SDS011;48199;49.138;7.414;2023-10-31T09:54:32;5.40;;;1.23;;
62202;SDS011;48199;49.138;7.414;2023-10-31T09:56:58;6.65;;;1.42;;
62202;SDS011;48199;49.138;7.414;2023-10-31T09:59:23;3.83;;;1.10;;
62202;SDS011;48199;49.138;7.414;2023-10-31T10:01:48;6.67;;;1.40;;
62202;SDS011;48199;49.138;7.414;2023-10-31T10:04:13;2.57;;;0.80;;
62202;SDS011;48199;49.138;7.414;2023-10-31T10:06:40;3.25;;;1.20;;
62202;SDS011;48199;49.138;7.414;2023-10-31T10:09:05;5.30;;;1.10;;
62202;SDS011;48199;49.138;7.414;2023-10-31T10:11:32;7.00;;;1.50;;
62202;SDS011;48199;49.138;7.414;2023-10-31T10:13:58;4.80;;;1.00;;
62202;SDS011;48199;49.138;7.414;2023-10-31T10:16:30;3.25;;;1.08;;
62202;SDS011;48199;49.138;7.414;2023-10-31T10:21:21;3.92;;;0.85;;
62202;SDS011;48199;49.138;7.414;2023-10-31T10:23:46;5.67;;;1.10;;
62202;SDS011;48199;49.138;7.414;2023-10-31T10:26:13;5.10;;;1.17;;
62202;SDS011;48199;49.138;7.414;2023-10-31T10:28:38;5.18;;;1.08;;
62202;SDS011;48199;49.138;7.414;2023-10-31T10:31:03;4.43;;;0.90;;
62202;SDS011;48199;49.138;7.414;2023-10-31T10:33:28;5.10;;;1.17;;
62202;SDS011;48199;49.138;7.414;2023-10-31T10:35:54;3.37;;;1.10;;
62202;SDS011;48199;49.138;7.414;2023-10-31T10:38:19;2.05;;;0.93;;
62202;SDS011;48199;49.138;7.414;2023-10-31T10:40:48;3.80;;;0.80;;
62202;SDS011;48199;49.138;7.414;2023-10-31T10:43:20;6.07;;;1.20;;
62202;SDS011;48199;49.138;7.414;2023-10-31T10:45:45;3.75;;;0.90;;
62202;SDS011;48199;49.138;7.414;2023-10-31T10:48:12;6.38;;;1.35;;
62202;SDS011;48199;49.138;7.414;2023-10-31T10:50:41;4.45;;;0.82;;
62202;SDS011;48199;49.138;7.414;2023-10-31T10:53:13;7.10;;;1.15;;
62202;SDS011;48199;49.138;7.414;2023-10-31T10:55:44;2.63;;;0.82;;
62202;SDS011;48199;49.138;7.414;2023-10-31T10:58:55;1.63;;;0.73;;
62202;SDS011;48199;49.138;7.414;2023-10-31T11:00:58;5.82;;;0.90;;
62202;SDS011;48199;49.138;7.414;2023-10-31T11:03:24;3.83;;;1.13;;
62202;SDS011;48199;49.138;7.414;2023-10-31T11:05:49;6.07;;;1.02;;
62202;SDS011;48199;49.138;7.414;2023-10-31T11:08:15;3.50;;;1.00;;
62202;SDS011;48199;49.138;7.414;2023-10-31T11:10:41;2.15;;;0.82;;
62202;SDS011;48199;49.138;7.414;2023-10-31T11:13:07;5.15;;;1.23;;
62202;SDS011;48199;49.138;7.414;2023-10-31T11:15:32;3.33;;;1.20;;
62202;SDS011;48199;49.138;7.414;2023-10-31T11:17:57;1.80;;;0.70;;
62202;SDS011;48199;49.138;7.414;2023-10-31T11:20:23;6.72;;;1.10;;
62202;SDS011;48199;49.138;7.414;2023-10-31T11:22:49;5.53;;;1.20;;
62202;SDS011;48199;49.138;7.414;2023-10-31T11:25:19;10.23;;;1.40;;
62202;SDS011;48199;49.138;7.414;2023-10-31T11:27:51;2.03;;;0.80;;
62202;SDS011;48199;49.138;7.414;2023-10-31T11:32:48;1.85;;;1.00;;
62202;SDS011;48199;49.138;7.414;2023-10-31T11:35:15;6.47;;;1.25;;
62202;SDS011;48199;49.138;7.414;2023-10-31T11:37:41;3.33;;;0.93;;
62202;SDS011;48199;49.138;7.414;2023-10-31T11:40:15;7.20;;;1.17;;
62202;SDS011;48199;49.138;7.414;2023-10-31T11:42:41;4.35;;;1.25;;
62202;SDS011;48199;49.138;7.414;2023-10-31T11:45:10;4.65;;;1.08;;
62202;SDS011;48199;49.138;7.414;2023-10-31T11:47:48;4.68;;;1.25;;
62202;SDS011;48199;49.138;7.414;2023-10-31T11:50:13;8.77;;;1.52;;
62202;SDS011;48199;49.138;7.414;2023-10-31T11:52:38;3.10;;;1.20;;
62202;SDS011;48199;49.138;7.414;2023-10-31T11:55:04;7.65;;;1.35;;
62202;SDS011;48199;49.138;7.414;2023-10-31T11:57:30;3.80;;;1.38;;
62202;SDS011;48199;49.138;7.414;2023-10-31T11:59:56;3.63;;;1.38;;
62202;SDS011;48199;49.138;7.414;2023-10-31T12:02:21;3.80;;;1.47;;
62202;SDS011;48199;49.138;7.414;2023-10-31T12:04:46;3.20;;;1.33;;
62202;SDS011;48199;49.138;7.414;2023-10-31T12:07:11;7.63;;;1.67;;
62202;SDS011;48199;49.138;7.414;2023-10-31T12:09:48;3.53;;;1.10;;
62202;SDS011;48199;49.138;7.414;2023-10-31T12:12:14;2.28;;;1.10;;
62202;SDS011;48199;49.138;7.414;2023-10-31T12:14:39;3.30;;;1.05;;
62202;SDS011;48199;49.138;7.414;2023-10-31T12:17:05;1.63;;;0.77;;
62202;SDS011;48199;49.138;7.414;2023-10-31T12:19:31;2.67;;;0.93;;
62202;SDS011;48199;49.138;7.414;2023-10-31T12:21:57;3.25;;;0.80;;
62202;SDS011;48199;49.138;7.414;2023-10-31T12:24:22;2.37;;;0.60;;
62202;SDS011;48199;49.138;7.414;2023-10-31T12:26:48;4.50;;;1.25;;
62202;SDS011;48199;49.138;7.414;2023-10-31T12:29:14;1.42;;;0.80;;
62202;SDS011;48199;49.138;7.414;2023-10-31T12:31:42;1.90;;;0.90;;
62202;SDS011;48199;49.138;7.414;2023-10-31T12:34:08;2.53;;;1.13;;
62202;SDS011;48199;49.138;7.414;2023-10-31T12:36:34;2.22;;;1.17;;
62202;SDS011;48199;49.138;7.414;2023-10-31T12:39:00;2.13;;;0.98;;
62202;SDS011;48199;49.138;7.414;2023-10-31T12:41:25;3.70;;;1.10;;
62202;SDS011;48199;49.138;7.414;2023-10-31T12:43:51;1.75;;;0.80;;
62202;SDS011;48199;49.138;7.414;2023-10-31T12:46:28;4.20;;;1.10;;
62202;SDS011;48199;49.138;7.414;2023-10-31T12:48:57;1.48;;;0.65;;
62202;SDS011;48199;49.138;7.414;2023-10-31T12:51:22;3.78;;;1.40;;
62202;SDS011;48199;49.138;7.414;2023-10-31T12:53:51;4.85;;;1.83;;
62202;SDS011;48199;49.138;7.414;2023-10-31T12:56:36;1.60;;;0.90;;
62202;SDS011;48199;49.138;7.414;2023-10-31T12:59:04;1.83;;;0.82;;
62202;SDS011;48199;49.138;7.414;2023-10-31T13:01:30;4.75;;;1.00;;
62202;SDS011;48199;49.138;7.414;2023-10-31T13:03:56;3.75;;;0.80;;
62202;SDS011;48199;49.138;7.414;2023-10-31T13:06:22;2.25;;;0.70;;
62202;SDS011;48199;49.138;7.414;2023-10-31T13:08:48;4.00;;;0.90;;
62202;SDS011;48199;49.138;7.414;2023-10-31T13:11:13;3.33;;;0.90;;
62202;SDS011;48199;49.138;7.414;2023-10-31T13:13:39;1.30;;;0.68;;
62202;SDS011;48199;49.138;7.414;2023-10-31T13:16:04;2.40;;;0.77;;
62202;SDS011;48199;49.138;7.414;2023-10-31T13:18:30;3.03;;;0.75;;
62202;SDS011;48199;49.138;7.414;2023-10-31T13:20:55;2.00;;;0.63;;
62202;SDS011;48199;49.138;7.414;2023-10-31T13:23:20;0.87;;;0.80;;
62202;SDS011;48199;49.138;7.414;2023-10-31T13:25:45;3.50;;;0.77;;
62202;SDS011;48199;49.138;7.414;2023-10-31T13:28:11;2.83;;;0.83;;
62202;SDS011;48199;49.138;7.414;2023-10-31T13:30:37;2.15;;;0.93;;
62202;SDS011;48199;49.138;7.414;2023-10-31T13:33:02;2.23;;;0.87;;
62202;SDS011;48199;49.138;7.414;2023-10-31T13:35:28;4.25;;;1.15;;
62202;SDS011;48199;49.138;7.414;2023-10-31T13:37:53;1.30;;;0.60;;
62202;SDS011;48199;49.138;7.414;2023-10-31T13:40:18;2.03;;;1.00;;
62202;SDS011;48199;49.138;7.414;2023-10-31T13:42:43;1.67;;;1.20;;
62202;SDS011;48199;49.138;7.414;2023-10-31T13:45:08;1.80;;;0.90;;
62202;SDS011;48199;49.138;7.414;2023-10-31T13:47:34;7.05;;;1.17;;
62202;SDS011;48199;49.138;7.414;2023-10-31T13:49:59;2.00;;;1.17;;
62202;SDS011;48199;49.138;7.414;2023-10-31T13:52:25;1.83;;;1.02;;
62202;SDS011;48199;49.138;7.414;2023-10-31T13:54:50;2.23;;;1.00;;
62202;SDS011;48199;49.138;7.414;2023-10-31T13:57:15;2.67;;;0.97;;
62202;SDS011;48199;49.138;7.414;2023-10-31T13:59:40;1.93;;;1.00;;
62202;SDS011;48199;49.138;7.414;2023-10-31T14:02:06;3.42;;;1.10;;
62202;SDS011;48199;49.138;7.414;2023-10-31T14:04:31;6.57;;;1.10;;
62202;SDS011;48199;49.138;7.414;2023-10-31T14:06:56;2.90;;;0.93;;
62202;SDS011;48199;49.138;7.414;2023-10-31T14:09:21;0.70;;;0.70;;
62202;SDS011;48199;49.138;7.414;2023-10-31T14:11:47;7.57;;;0.90;;
62202;SDS011;48199;49.138;7.414;2023-10-31T14:14:12;1.50;;;0.60;;
62202;SDS011;48199;49.138;7.414;2023-10-31T14:16:42;4.82;;;0.85;;
62202;SDS011;48199;49.138;7.414;2023-10-31T14:19:09;1.10;;;0.70;;
62202;SDS011;48199;49.138;7.414;2023-10-31T14:21:35;0.77;;;0.45;;
62202;SDS011;48199;49.138;7.414;2023-10-31T14:24:00;3.38;;;0.60;;
62202;SDS011;48199;49.138;7.414;2023-10-31T14:26:26;1.83;;;0.55;;
62202;SDS011;48199;49.138;7.414;2023-10-31T14:28:51;0.60;;;0.40;;
62202;SDS011;48199;49.138;7.414;2023-10-31T14:31:17;1.25;;;0.55;;
62202;SDS011;48199;49.138;7.414;2023-10-31T14:33:42;1.13;;;0.50;;
62202;SDS011;48199;49.138;7.414;2023-10-31T14:36:08;2.53;;;0.70;;
62202;SDS011;48199;49.138;7.414;2023-10-31T14:38:35;0.90;;;0.50;;
62202;SDS011;48199;49.138;7.414;2023-10-31T14:41:00;0.82;;;0.63;;
62202;SDS011;48199;49.138;7.414;2023-10-31T14:43:26;2.15;;;0.57;;
62202;SDS011;48199;49.138;7.414;2023-10-31T14:45:51;2.65;;;1.13;;